createdAt,value
2022-11-13T00:03:01.340Z,8.48
2022-11-13T00:06:22.061Z,8.82
2022-11-13T00:13:03.485Z,8.80
2022-11-13T00:16:24.079Z,8.10
2022-11-13T00:19:47.633Z,9.45
2022-11-13T00:23:08.142Z,9.43
2022-11-13T00:26:30.806Z,9.88
2022-11-13T00:29:51.361Z,9.05
2022-11-13T00:33:11.917Z,9.30
2022-11-13T00:36:32.503Z,9.02
2022-11-13T00:39:58.472Z,8.70
2022-11-13T00:46:40.811Z,8.82
2022-11-13T00:50:01.231Z,8.75
2022-11-13T00:53:22.319Z,8.02
2022-11-13T00:56:43.567Z,8.10
2022-11-13T01:00:04.991Z,8.02
2022-11-13T01:03:25.650Z,8.52
2022-11-13T01:06:46.299Z,8.55
2022-11-13T01:10:07.533Z,7.78
2022-11-13T01:13:27.783Z,7.22
2022-11-13T01:16:49.259Z,7.72
2022-11-13T01:20:10.481Z,8.27
2022-11-13T01:23:34.034Z,8.43
2022-11-13T01:26:55.506Z,8.88
2022-11-13T01:30:16.731Z,7.75
2022-11-13T01:33:37.911Z,7.82
2022-11-13T01:36:58.750Z,7.68
2022-11-13T01:40:19.164Z,7.85
2022-11-13T01:43:40.555Z,8.20
2022-11-13T01:47:02.071Z,8.27
2022-11-13T01:50:24.987Z,7.47
2022-11-13T01:53:47.799Z,7.82
2022-11-13T01:57:08.810Z,7.75
2022-11-13T02:00:29.202Z,7.75
2022-11-13T02:03:49.804Z,7.40
2022-11-13T02:07:14.700Z,8.00
2022-11-13T02:10:35.517Z,8.10
2022-11-13T02:13:57.218Z,7.50
2022-11-13T02:17:28.161Z,8.80
2022-11-13T02:21:01.979Z,7.50
2022-11-13T02:24:30.479Z,8.05
2022-11-13T02:27:52.958Z,8.73
2022-11-13T02:31:14.362Z,8.38
2022-11-13T02:34:34.976Z,8.00
2022-11-13T02:37:57.840Z,7.10
2022-11-13T02:41:19.363Z,7.53
2022-11-13T02:44:39.988Z,7.15
2022-11-13T02:48:01.357Z,7.40
2022-11-13T02:51:21.747Z,8.38
2022-11-13T02:54:42.292Z,7.45
2022-11-13T02:58:03.739Z,7.43
2022-11-13T03:01:24.299Z,6.50
2022-11-13T03:05:10.945Z,8.18
2022-11-13T03:08:26.060Z,7.88
2022-11-13T03:11:47.016Z,6.93
2022-11-13T03:15:08.627Z,7.32
2022-11-13T03:18:30.765Z,7.80
2022-11-13T03:21:51.520Z,8.25
2022-11-13T03:25:11.904Z,8.27
2022-11-13T03:28:32.997Z,8.30
2022-11-13T03:31:53.595Z,7.55
2022-11-13T03:35:14.315Z,8.20
2022-11-13T03:38:35.314Z,7.78
2022-11-13T03:41:58.107Z,7.47
2022-11-13T03:45:18.716Z,8.10
2022-11-13T03:48:39.239Z,8.18
2022-11-13T03:51:48.184Z,7.68
2022-11-13T03:58:29.739Z,8.15
2022-11-13T04:01:50.776Z,8.23
2022-11-13T04:08:32.376Z,8.45
2022-11-13T04:11:52.946Z,8.20
2022-11-13T04:15:13.362Z,8.88
2022-11-13T04:18:33.816Z,8.02
2022-11-13T04:21:55.351Z,9.57
2022-11-13T04:25:15.868Z,8.77
2022-11-13T04:28:36.397Z,10.25
2022-11-13T04:31:56.858Z,10.35
2022-11-13T04:35:17.467Z,8.93
2022-11-13T04:38:37.897Z,10.02
2022-11-13T04:41:58.303Z,10.38
2022-11-13T04:45:20.780Z,9.50
2022-11-13T04:48:41.280Z,9.52
2022-11-13T04:52:01.892Z,9.00
2022-11-13T04:55:22.209Z,9.70
2022-11-13T04:58:42.725Z,9.73
2022-11-13T05:02:03.562Z,9.32
2022-11-13T05:05:24.096Z,8.60
2022-11-13T05:08:44.690Z,9.05
2022-11-13T05:12:05.609Z,8.65
2022-11-13T05:15:26.687Z,8.63
2022-11-13T05:18:47.300Z,8.30
2022-11-13T05:22:07.896Z,8.52
2022-11-13T05:25:28.999Z,9.30
2022-11-13T05:32:12.241Z,9.45
2022-11-13T05:35:32.729Z,9.75
2022-11-13T05:38:53.314Z,9.65
2022-11-13T05:42:13.856Z,10.80
2022-11-13T05:45:34.362Z,10.20
2022-11-13T05:49:00.136Z,10.73
2022-11-13T05:52:20.927Z,11.95
2022-11-13T05:55:46.397Z,13.13
2022-11-13T05:59:06.980Z,10.45
2022-11-13T06:02:27.407Z,10.57
2022-11-13T06:05:48.023Z,12.48
2022-11-13T06:09:13.417Z,11.82
2022-11-13T06:12:33.780Z,12.13
2022-11-13T06:15:55.487Z,11.60
2022-11-13T06:19:15.937Z,12.88
2022-11-13T06:22:36.499Z,12.10
2022-11-13T06:26:01.848Z,11.75
2022-11-13T06:29:22.323Z,11.77
2022-11-13T06:32:42.729Z,10.90
2022-11-13T06:36:05.473Z,10.27
2022-11-13T06:39:26.533Z,10.05
2022-11-13T06:42:46.897Z,10.95
2022-11-13T06:46:13.535Z,10.02
2022-11-13T06:49:34.053Z,9.85
2022-11-13T06:52:55.242Z,9.75
2022-11-13T06:56:16.280Z,10.60
2022-11-13T06:59:38.625Z,10.27
2022-11-13T07:02:59.167Z,10.02
2022-11-13T07:06:23.137Z,10.25
2022-11-13T07:09:44.013Z,10.07
2022-11-13T07:13:04.949Z,9.02
2022-11-13T07:16:34.702Z,9.15
2022-11-13T07:20:07.871Z,9.20
2022-11-13T07:23:28.312Z,10.10
2022-11-13T07:26:48.813Z,9.90
2022-11-13T07:30:11.692Z,9.13
2022-11-13T07:33:37.266Z,10.68
2022-11-13T07:36:57.731Z,9.57
2022-11-13T07:40:18.522Z,9.35
2022-11-13T07:43:39.183Z,10.00
2022-11-13T07:47:05.678Z,8.73
2022-11-13T07:50:32.218Z,9.73
2022-11-13T07:53:53.004Z,8.95
2022-11-13T07:57:16.436Z,9.65
2022-11-13T08:00:37.002Z,9.18
2022-11-13T08:03:57.726Z,9.10
2022-11-13T08:07:18.366Z,7.63
2022-11-13T08:10:39.378Z,8.60
2022-11-13T08:14:00.033Z,7.55
2022-11-13T08:17:20.601Z,7.88
2022-11-13T08:20:41.305Z,7.18
2022-11-13T08:27:23.501Z,6.80
2022-11-13T08:30:45.336Z,7.85
2022-11-13T08:34:05.782Z,6.70
2022-11-13T08:37:26.186Z,6.60
2022-11-13T08:40:49.511Z,7.35
2022-11-13T08:44:10.367Z,9.18
2022-11-13T08:47:30.983Z,8.15
2022-11-13T08:50:55.664Z,7.75
2022-11-13T08:54:16.242Z,8.05
2022-11-13T08:57:36.744Z,7.35
2022-11-13T09:01:01.729Z,8.05
2022-11-13T09:04:22.490Z,7.70
2022-11-13T09:07:42.993Z,7.05
2022-11-13T09:11:06.798Z,6.35
2022-11-13T09:14:27.481Z,7.18
2022-11-13T09:17:48.026Z,7.30
2022-11-13T09:21:08.773Z,6.60
2022-11-13T09:24:29.357Z,6.28
2022-11-13T09:27:54.637Z,6.68
2022-11-13T09:31:15.946Z,6.07
2022-11-13T09:34:36.812Z,7.10
2022-11-13T09:41:21.401Z,6.55
2022-11-13T09:44:48.450Z,6.03
2022-11-13T09:48:25.585Z,5.32
2022-11-13T09:51:55.433Z,5.57
2022-11-13T09:55:23.501Z,5.53
2022-11-13T09:58:54.190Z,5.05
2022-11-13T10:02:40.763Z,4.95
2022-11-13T10:06:20.202Z,4.80
2022-11-13T10:10:12.363Z,4.80
2022-11-13T10:13:59.788Z,5.10
2022-11-13T10:17:36.267Z,4.70
2022-11-13T10:21:25.971Z,6.30
2022-11-13T10:24:49.819Z,7.47
2022-11-13T10:28:48.723Z,6.28
2022-11-13T10:32:13.276Z,6.25
2022-11-13T10:35:49.698Z,7.95
2022-11-13T10:39:10.977Z,6.50
2022-11-13T10:42:41.929Z,6.60
2022-11-13T10:46:05.937Z,5.32
2022-11-13T10:49:27.558Z,6.13
2022-11-13T10:52:50.466Z,5.57
2022-11-13T10:56:31.940Z,5.47
2022-11-13T10:59:52.536Z,5.75
2022-11-13T11:10:34.013Z,5.28
2022-11-13T11:14:27.653Z,5.72
2022-11-13T11:17:56.710Z,5.85
2022-11-13T11:21:22.503Z,5.18
2022-11-13T11:25:10.630Z,5.20
2022-11-13T11:28:39.699Z,4.88
2022-11-13T11:32:15.605Z,5.43
2022-11-13T11:35:48.002Z,5.07
2022-11-13T11:39:31.378Z,4.85
2022-11-13T11:43:05.588Z,5.03
2022-11-13T11:46:26.158Z,5.22
2022-11-13T12:03:53.287Z,12.45
2022-11-13T12:07:47.271Z,11.93
2022-11-13T12:11:21.930Z,11.75
2022-11-13T12:15:03.766Z,11.48
2022-11-13T12:18:41.659Z,12.70
2022-11-13T12:22:13.223Z,12.02
2022-11-13T12:25:49.694Z,11.93
2022-11-13T12:29:37.299Z,10.98
2022-11-13T12:33:11.770Z,10.75
2022-11-13T12:40:13.012Z,9.93
2022-11-13T12:43:58.260Z,9.57
2022-11-13T12:47:19.327Z,9.75
2022-11-13T12:50:42.889Z,9.77
2022-11-13T12:54:03.796Z,8.10
2022-11-13T12:57:29.999Z,8.30
2022-11-13T13:01:12.358Z,8.02
2022-11-13T13:05:26.815Z,6.80
2022-11-13T13:09:17.147Z,7.32
2022-11-13T13:12:46.554Z,8.02
2022-11-13T13:16:08.956Z,7.57
2022-11-13T13:19:33.619Z,6.88
2022-11-13T13:22:58.950Z,7.20
2022-11-13T13:26:28.749Z,7.43
2022-11-13T13:29:49.990Z,7.00
2022-11-13T13:33:20.687Z,7.05
2022-11-13T13:37:17.203Z,6.68
2022-11-13T13:41:00.797Z,6.55
2022-11-13T13:44:30.076Z,7.55
2022-11-13T13:47:55.827Z,6.22
2022-11-13T13:51:16.683Z,6.68
2022-11-13T13:58:08.581Z,7.00
2022-11-13T14:01:31.514Z,7.75
2022-11-13T14:04:54.481Z,7.13
2022-11-13T14:08:20.411Z,7.88
2022-11-13T14:11:41.220Z,8.40
2022-11-13T14:15:05.202Z,8.07
2022-11-13T14:18:26.188Z,8.00
2022-11-13T14:21:53.931Z,8.75
2022-11-13T14:25:27.814Z,9.30
2022-11-13T14:29:02.001Z,9.88
2022-11-13T14:32:33.036Z,10.35
2022-11-13T14:35:56.542Z,9.35
2022-11-13T14:39:26.243Z,11.18
2022-11-13T14:42:51.594Z,11.88
2022-11-13T14:46:28.904Z,11.57
2022-11-13T14:49:49.980Z,12.30
2022-11-13T14:53:13.728Z,12.32
2022-11-13T15:00:16.264Z,13.30
2022-11-13T15:03:37.382Z,13.25
2022-11-13T15:10:23.281Z,12.57
2022-11-13T15:13:45.218Z,11.25
2022-11-13T15:17:06.087Z,11.27
2022-11-13T15:20:28.722Z,12.02
2022-11-13T15:23:52.071Z,12.82
2022-11-13T15:27:18.474Z,13.23
2022-11-13T15:30:39.076Z,14.05
2022-11-13T15:33:59.888Z,14.68
2022-11-13T15:37:20.661Z,13.57
2022-11-13T15:40:41.087Z,13.77
2022-11-13T15:44:04.815Z,13.05
2022-11-13T15:47:27.437Z,13.50
2022-11-13T15:50:48.399Z,14.05
2022-11-13T15:54:25.072Z,14.68
2022-11-13T15:57:46.256Z,14.10
2022-11-13T16:01:12.978Z,15.50
2022-11-13T16:04:54.484Z,15.75
2022-11-13T16:08:15.999Z,17.35
2022-11-13T16:11:37.268Z,18.58
2022-11-13T16:18:27.727Z,22.05
2022-11-13T16:21:48.737Z,20.90
2022-11-13T16:25:21.166Z,15.93
2022-11-13T16:32:23.190Z,12.85
2022-11-13T16:35:48.254Z,15.02
2022-11-13T16:39:15.572Z,14.48
2022-11-13T16:42:36.162Z,14.75
2022-11-13T16:46:00.144Z,12.60
2022-11-13T16:49:21.038Z,11.95
2022-11-13T16:52:45.008Z,13.38
2022-11-13T16:56:13.265Z,13.20
2022-11-13T16:59:35.600Z,11.65
2022-11-13T17:02:56.273Z,13.02
2022-11-13T17:06:28.365Z,12.80
2022-11-13T17:09:58.901Z,16.50
2022-11-13T17:13:30.208Z,13.38
2022-11-13T17:16:50.864Z,14.18
2022-11-13T17:20:12.268Z,12.43
2022-11-13T17:23:33.123Z,12.80
2022-11-13T17:26:53.604Z,15.02
2022-11-13T17:30:14.650Z,18.63
2022-11-13T17:33:35.347Z,16.40
2022-11-13T17:36:56.164Z,18.30
2022-11-13T17:40:17.206Z,18.50
2022-11-13T17:43:40.514Z,13.25
2022-11-13T17:47:01.171Z,14.10
2022-11-13T17:50:24.693Z,14.00
2022-11-13T17:53:45.412Z,15.68
2022-11-13T18:00:27.458Z,13.18
2022-11-13T18:03:54.143Z,11.30
2022-11-13T18:07:15.424Z,11.75
2022-11-13T18:10:39.243Z,11.77
2022-11-13T18:14:02.188Z,11.95
2022-11-13T18:17:23.437Z,12.77
2022-11-13T18:20:44.437Z,12.82
2022-11-13T18:24:06.427Z,13.40
2022-11-13T18:27:26.923Z,13.88
2022-11-13T18:30:51.954Z,13.52
2022-11-13T18:34:17.594Z,13.43
2022-11-13T18:37:38.066Z,14.70
2022-11-13T18:41:07.890Z,14.27
2022-11-13T18:44:28.654Z,14.57
2022-11-13T18:47:37.048Z,14.02
2022-11-13T18:51:02.589Z,15.57
2022-11-13T18:54:22.924Z,14.05
2022-11-13T18:57:43.494Z,14.00
2022-11-13T19:01:20.469Z,14.60
2022-11-13T19:04:42.990Z,14.30
2022-11-13T19:08:03.960Z,13.93
2022-11-13T19:11:25.636Z,15.25
2022-11-13T19:14:48.014Z,15.45
2022-11-13T19:18:08.796Z,15.35
2022-11-13T19:21:33.548Z,13.93
2022-11-13T19:24:54.367Z,13.95
2022-11-13T19:28:15.108Z,14.13
2022-11-13T19:31:35.769Z,14.40
2022-11-13T19:34:57.051Z,14.63
2022-11-13T19:38:17.872Z,16.20
2022-11-13T19:41:41.024Z,13.82
2022-11-13T19:45:01.715Z,13.30
2022-11-13T19:48:22.264Z,15.48
2022-11-13T19:51:42.758Z,13.73
2022-11-13T19:55:14.261Z,14.82
2022-11-13T19:58:37.847Z,15.55
2022-11-13T20:01:59.169Z,14.60
2022-11-13T20:05:19.715Z,14.43
2022-11-13T20:08:40.796Z,13.57
2022-11-13T20:12:01.322Z,14.25
2022-11-13T20:15:23.097Z,13.00
2022-11-13T20:18:44.882Z,12.80
2022-11-13T20:22:05.552Z,12.95
2022-11-13T20:25:26.187Z,13.25
2022-11-13T20:28:46.920Z,14.20
2022-11-13T20:32:07.399Z,14.27
2022-11-13T20:35:27.887Z,13.63
2022-11-13T20:38:54.278Z,13.48
2022-11-13T20:42:14.856Z,13.75
2022-11-13T20:45:35.467Z,14.20
2022-11-13T20:48:56.258Z,13.77
2022-11-13T20:52:17.149Z,13.35
2022-11-13T20:55:37.761Z,12.38
2022-11-13T20:58:58.469Z,13.85
2022-11-13T21:02:19.067Z,13.20
2022-11-13T21:05:39.478Z,13.23
2022-11-13T21:08:59.995Z,13.65
2022-11-13T21:12:24.169Z,12.05
2022-11-13T21:15:44.761Z,12.27
2022-11-13T21:19:05.481Z,12.43
2022-11-13T21:25:58.888Z,11.52
2022-11-13T21:29:20.756Z,12.10
2022-11-13T21:32:42.845Z,12.75
2022-11-13T21:36:11.623Z,12.10
2022-11-13T21:39:32.263Z,13.88
2022-11-13T21:42:52.662Z,12.20
2022-11-13T21:46:13.101Z,11.45
2022-11-13T21:49:36.397Z,11.88
2022-11-13T21:52:57.206Z,11.40
2022-11-13T21:56:17.583Z,11.43
2022-11-13T21:59:38.153Z,12.35
2022-11-13T22:02:58.646Z,10.85
2022-11-13T22:06:40.619Z,11.20
2022-11-13T22:10:08.318Z,10.38
2022-11-13T22:13:38.215Z,10.70
2022-11-13T22:16:58.711Z,11.82
2022-11-13T22:20:19.287Z,10.30
2022-11-13T22:23:40.062Z,10.38
2022-11-13T22:27:00.975Z,11.77
2022-11-13T22:30:21.868Z,11.02
2022-11-13T22:37:10.470Z,11.77
2022-11-13T22:40:33.264Z,12.20
2022-11-13T22:44:05.977Z,11.73
2022-11-13T22:47:26.486Z,11.32
2022-11-13T22:50:47.086Z,10.68
2022-11-13T22:54:09.976Z,10.77
2022-11-13T22:57:31.722Z,10.93
2022-11-13T23:00:52.457Z,10.88
2022-11-13T23:04:13.723Z,10.80
2022-11-13T23:07:34.378Z,10.65
2022-11-13T23:10:55.324Z,11.07
2022-11-13T23:14:15.762Z,10.07
2022-11-13T23:17:36.523Z,10.10
2022-11-13T23:20:57.204Z,9.80
2022-11-13T23:24:17.777Z,10.63
2022-11-13T23:27:38.512Z,13.73
2022-11-13T23:30:59.330Z,11.05
2022-11-13T23:34:38.411Z,13.07
2022-11-13T23:38:00.788Z,12.93
2022-11-13T23:41:22.562Z,14.93
2022-11-13T23:44:43.545Z,9.00
2022-11-13T23:48:04.893Z,11.07
2022-11-13T23:51:25.840Z,11.50
2022-11-13T23:54:46.504Z,10.82
2022-11-13T23:58:13.099Z,10.25
